Time;durP1;ratioP1;P1;durP2;ratioP2;P2;SDS_P1;SDS_P2;PMS_P1;PMS_P2;Temp;Humidity;BMP_temperature;BMP_pressure;BME280_temperature;BME280_humidity;BME280_pressure;Samples;Min_cycle;Max_cycle;Signal;HPM_P1;HPM_P2
2022/01/10 00:00:17;;;;;;;21.58;6.43;;;3.00;99.90;;;;;;4992361;28;20132;-39
2022/01/10 00:02:46;;;;;;;14.38;5.05;;;3.00;99.90;;;;;;4992457;28;20433;-39
2022/01/10 00:05:13;;;;;;;20.17;7.25;;;2.90;99.90;;;;;;4993169;28;20058;-39
2022/01/10 00:07:41;;;;;;;24.45;8.35;;;2.90;99.90;;;;;;4979266;28;20562;-39
2022/01/10 00:10:09;;;;;;;19.88;8.60;;;2.80;99.90;;;;;;4993252;28;20054;-39
2022/01/10 00:12:36;;;;;;;20.48;6.82;;;2.80;99.90;;;;;;4989439;28;20050;-39
2022/01/10 00:15:04;;;;;;;22.67;7.75;;;2.80;99.90;;;;;;4991063;28;20057;-39
2022/01/10 00:17:31;;;;;;;24.77;8.32;;;2.70;99.90;;;;;;4994031;28;20046;-39
2022/01/10 00:19:59;;;;;;;22.08;7.38;;;2.70;99.90;;;;;;4994460;28;20080;-39
2022/01/10 00:22:27;;;;;;;25.35;6.90;;;2.70;99.90;;;;;;4993641;28;20061;-39
2022/01/10 00:24:53;;;;;;;25.70;9.18;;;2.70;99.90;;;;;;4993919;28;20081;-40
2022/01/10 00:27:20;;;;;;;22.77;7.72;;;2.60;99.90;;;;;;4992912;28;20133;-38
2022/01/10 00:29:47;;;;;;;21.45;6.45;;;2.60;99.90;;;;;;4992808;28;20148;-39
2022/01/10 00:32:14;;;;;;;27.30;7.47;;;2.60;99.90;;;;;;4993242;28;20054;-39
2022/01/10 00:34:41;;;;;;;13.77;5.70;;;2.50;99.90;;;;;;4994357;28;20076;-39
2022/01/10 00:37:10;;;;;;;26.27;8.10;;;2.50;99.90;;;;;;4991880;28;20491;-39
2022/01/10 00:39:37;;;;;;;25.48;7.35;;;2.40;99.90;;;;;;4993914;28;20058;-39
2022/01/10 00:42:04;;;;;;;19.58;6.70;;;2.50;99.90;;;;;;4993079;28;20105;-39
2022/01/10 00:44:37;;;;;;;25.88;6.72;;;2.50;99.90;;;;;;4992686;28;20065;-39
2022/01/10 00:47:04;;;;;;;17.10;6.30;;;2.40;99.90;;;;;;4994228;28;20061;-38
2022/01/10 00:49:31;;;;;;;26.20;6.63;;;2.40;99.90;;;;;;4992996;28;20078;-38
2022/01/10 00:51:58;;;;;;;25.98;5.90;;;2.40;99.90;;;;;;4992451;28;20053;-38
2022/01/10 00:54:27;;;;;;;19.85;5.63;;;2.40;99.90;;;;;;4992077;28;20475;-39
2022/01/10 00:56:56;;;;;;;18.35;5.68;;;2.30;99.90;;;;;;4993387;28;20077;-38
2022/01/10 00:59:23;;;;;;;22.73;7.35;;;2.30;99.90;;;;;;4993553;28;20061;-38
2022/01/10 01:01:50;;;;;;;20.48;6.78;;;2.20;99.90;;;;;;4993315;28;20038;-38
2022/01/10 01:04:18;;;;;;;20.05;7.13;;;2.20;99.90;;;;;;4992604;28;20501;-39
2022/01/10 01:06:45;;;;;;;16.15;5.93;;;2.20;99.90;;;;;;4993647;28;20054;-39
2022/01/10 01:09:15;;;;;;;28.02;6.50;;;2.10;99.90;;;;;;4993565;28;20061;-39
2022/01/10 01:17:15;;;;;;;21.05;6.28;;;2.10;99.90;;;;;;4990452;28;20057;-39
2022/01/10 01:25:11;;;;;;;17.63;5.28;;;2.00;99.90;;;;;;4986810;28;20042;-38
2022/01/10 01:27:40;;;;;;;17.38;5.68;;;2.00;99.90;;;;;;4993405;28;20050;-38
2022/01/10 01:30:08;;;;;;;12.57;4.50;;;2.00;99.90;;;;;;4992187;28;20073;-39
2022/01/10 01:32:35;;;;;;;18.75;6.25;;;1.90;99.90;;;;;;4992634;28;20097;-39
2022/01/10 01:35:06;;;;;;;18.55;6.10;;;1.90;99.90;;;;;;4992618;28;20054;-38
2022/01/10 01:37:33;;;;;;;15.48;5.72;;;1.90;99.90;;;;;;4992289;28;20046;-38
2022/01/10 01:39:59;;;;;;;23.77;7.45;;;1.90;99.90;;;;;;4991627;28;20454;-38
2022/01/10 01:42:34;;;;;;;21.60;6.93;;;1.90;99.90;;;;;;4991618;28;20053;-38
2022/01/10 01:45:06;;;;;;;18.55;5.97;;;1.80;99.90;;;;;;4992591;28;20049;-39
2022/01/10 01:47:33;;;;;;;13.25;6.25;;;1.90;99.90;;;;;;4990724;28;20049;-39
2022/01/10 01:50:00;;;;;;;21.05;7.70;;;1.80;99.90;;;;;;4987916;28;20085;-38
2022/01/10 01:52:27;;;;;;;17.05;7.15;;;1.80;99.90;;;;;;4991903;28;20173;-39
2022/01/10 01:54:54;;;;;;;16.85;6.70;;;1.80;99.90;;;;;;4992934;28;20210;-38
2022/01/10 01:57:21;;;;;;;16.40;6.13;;;1.70;99.90;;;;;;4992163;28;20477;-38
2022/01/10 01:59:49;;;;;;;17.98;6.30;;;1.70;99.90;;;;;;4991640;28;20093;-38
2022/01/10 02:02:17;;;;;;;18.95;7.78;;;1.70;99.90;;;;;;4992135;28;20092;-38
2022/01/10 02:04:44;;;;;;;19.08;7.35;;;1.70;99.90;;;;;;4991473;28;20133;-38
2022/01/10 02:07:11;;;;;;;16.60;8.30;;;1.70;99.90;;;;;;4990116;28;20129;-38
2022/01/10 02:09:38;;;;;;;21.38;8.27;;;1.60;99.90;;;;;;4991897;28;20555;-38
2022/01/10 02:12:05;;;;;;;21.23;7.07;;;1.60;99.90;;;;;;4990841;28;20125;-38
2022/01/10 02:14:32;;;;;;;21.60;7.72;;;1.60;99.90;;;;;;4989337;28;20089;-38
2022/01/10 02:16:59;;;;;;;20.88;7.90;;;1.60;99.90;;;;;;4991191;28;20085;-38
2022/01/10 02:19:28;;;;;;;22.90;7.65;;;1.60;99.90;;;;;;4990750;28;20089;-38
2022/01/10 02:21:56;;;;;;;20.38;9.02;;;1.50;99.90;;;;;;4991241;28;20083;-38
2022/01/10 02:24:24;;;;;;;18.92;7.57;;;1.50;99.90;;;;;;4991649;28;20078;-38
2022/01/10 02:26:51;;;;;;;35.28;10.95;;;1.50;99.90;;;;;;4993312;28;20046;-38
2022/01/10 02:29:18;;;;;;;22.90;10.25;;;1.50;99.90;;;;;;4990541;28;20046;-38
2022/01/10 02:31:45;;;;;;;20.15;8.35;;;1.50;99.90;;;;;;4991585;28;20558;-37
2022/01/10 02:34:16;;;;;;;25.73;10.30;;;1.50;99.90;;;;;;4993830;28;20129;-38
2022/01/10 02:36:43;;;;;;;29.38;10.27;;;1.40;99.90;;;;;;4994325;28;20050;-37
2022/01/10 02:39:11;;;;;;;24.80;9.93;;;1.40;99.90;;;;;;4990476;28;20097;-38
2022/01/10 02:41:39;;;;;;;26.70;10.40;;;1.40;99.90;;;;;;4989914;28;20142;-37
2022/01/10 02:44:08;;;;;;;23.13;9.57;;;1.40;99.90;;;;;;4993636;28;20050;-38
2022/01/10 02:46:36;;;;;;;19.58;8.30;;;1.40;99.90;;;;;;4995031;28;20082;-38
2022/01/10 02:49:08;;;;;;;26.13;9.27;;;1.40;99.90;;;;;;4994024;28;20085;-38
2022/01/10 02:51:35;;;;;;;29.85;9.80;;;1.40;99.90;;;;;;4993366;28;20503;-38
2022/01/10 02:54:02;;;;;;;31.55;11.15;;;1.40;99.90;;;;;;4995482;28;20050;-38
2022/01/10 02:56:31;;;;;;;20.92;8.88;;;1.40;99.90;;;;;;4994871;28;20073;-38
2022/01/10 02:58:58;;;;;;;23.63;8.43;;;1.30;99.90;;;;;;4994531;28;20092;-38
2022/01/10 03:01:25;;;;;;;20.48;9.48;;;1.30;99.90;;;;;;4995254;28;20042;-38
2022/01/10 03:03:52;;;;;;;16.83;8.40;;;1.30;99.90;;;;;;4994315;28;20046;-38
2022/01/10 03:06:22;;;;;;;22.00;8.65;;;1.30;99.90;;;;;;4995062;28;20096;-38
2022/01/10 03:08:49;;;;;;;31.98;10.35;;;1.20;99.90;;;;;;4994279;28;20468;-38
2022/01/10 03:11:16;;;;;;;18.63;8.68;;;1.20;99.90;;;;;;4993742;28;20085;-38
2022/01/10 03:13:44;;;;;;;17.30;8.38;;;1.20;99.90;;;;;;4993515;28;20093;-38
2022/01/10 03:16:11;;;;;;;18.08;9.57;;;1.20;99.90;;;;;;4994634;28;20048;-38
2022/01/10 03:18:39;;;;;;;26.55;9.80;;;1.10;99.90;;;;;;4994105;28;20078;-38
2022/01/10 03:21:06;;;;;;;22.13;8.70;;;1.20;99.90;;;;;;4993618;28;20060;-38
2022/01/10 03:23:33;;;;;;;23.65;9.38;;;1.10;99.90;;;;;;4993364;28;20487;-38
2022/01/10 03:26:00;;;;;;;24.52;10.25;;;1.10;99.90;;;;;;4993928;28;20049;-38
2022/01/10 03:28:27;;;;;;;36.25;12.88;;;1.10;99.90;;;;;;4994283;28;20467;-38
2022/01/10 03:30:55;;;;;;;35.40;13.60;;;1.00;99.90;;;;;;4993292;28;20050;-38
2022/01/10 03:33:22;;;;;;;36.90;13.90;;;1.00;99.90;;;;;;4991042;28;20495;-38
2022/01/10 03:35:49;;;;;;;33.72;12.73;;;1.00;99.90;;;;;;4999449;28;20129;-38
2022/01/10 03:38:16;;;;;;;22.00;9.98;;;1.00;99.90;;;;;;4994263;28;20054;-38
2022/01/10 03:40:43;;;;;;;35.25;13.38;;;1.00;99.90;;;;;;4992293;28;20050;-38
2022/01/10 03:43:10;;;;;;;21.77;10.25;;;1.00;99.90;;;;;;4992889;28;20054;-39
2022/01/10 03:45:37;;;;;;;28.52;12.70;;;1.00;99.90;;;;;;4993446;28;20157;-39
2022/01/10 03:48:06;;;;;;;26.77;12.10;;;1.00;99.90;;;;;;4992749;28;20061;-38
2022/01/10 03:50:33;;;;;;;24.60;10.65;;;1.00;99.90;;;;;;4993674;28;20342;-38
2022/01/10 03:53:00;;;;;;;25.17;12.23;;;1.00;99.90;;;;;;4993874;28;20058;-39
2022/01/10 03:55:27;;;;;;;36.92;14.93;;;1.00;99.90;;;;;;4992988;28;20097;-39
2022/01/10 03:57:54;;;;;;;35.20;15.13;;;1.00;99.90;;;;;;4991098;28;20054;-39
2022/01/10 04:00:21;;;;;;;23.98;11.52;;;1.00;99.90;;;;;;5009210;28;20074;-38
2022/01/10 04:02:54;;;;;;;31.85;13.52;;;0.90;99.90;;;;;;4995525;28;20406;-39
2022/01/10 04:05:22;;;;;;;27.08;15.15;;;0.90;99.90;;;;;;4992581;28;20406;-39
2022/01/10 04:07:49;;;;;;;25.38;12.00;;;0.90;99.90;;;;;;4993253;28;20159;-39
2022/01/10 04:10:16;;;;;;;22.35;10.88;;;0.90;99.90;;;;;;4993995;28;20089;-39
2022/01/10 04:12:43;;;;;;;32.78;14.05;;;0.90;99.90;;;;;;4993489;28;20061;-39
2022/01/10 04:15:10;;;;;;;19.85;9.95;;;0.80;99.90;;;;;;4993752;28;20157;-39
2022/01/10 04:17:37;;;;;;;23.20;9.73;;;0.90;99.90;;;;;;4993127;28;20050;-39
2022/01/10 04:20:05;;;;;;;21.25;9.45;;;0.80;99.90;;;;;;4992035;28;20082;-39
2022/01/10 04:22:33;;;;;;;24.85;13.05;;;0.80;99.90;;;;;;4993074;28;20056;-39
2022/01/10 04:25:01;;;;;;;32.45;14.73;;;0.80;99.90;;;;;;4993335;28;20139;-39
2022/01/10 04:27:31;;;;;;;21.30;10.45;;;0.70;99.90;;;;;;4991572;28;20390;-39
2022/01/10 04:29:59;;;;;;;28.65;13.27;;;0.70;99.90;;;;;;4992781;28;20042;-39
2022/01/10 04:32:27;;;;;;;27.48;13.98;;;0.70;99.90;;;;;;4992022;28;20494;-40
2022/01/10 04:34:54;;;;;;;29.95;12.63;;;0.70;99.90;;;;;;4991472;28;20096;-40
2022/01/10 04:37:21;;;;;;;22.23;11.05;;;0.70;99.90;;;;;;4988307;28;20042;-40
2022/01/10 04:39:49;;;;;;;30.48;13.90;;;0.70;99.90;;;;;;4990989;28;20042;-39
2022/01/10 04:42:16;;;;;;;24.50;11.75;;;0.70;99.90;;;;;;4991256;28;20056;-39
2022/01/10 04:44:43;;;;;;;22.17;11.73;;;0.70;99.90;;;;;;4991534;28;20054;-40
2022/01/10 04:47:10;;;;;;;25.15;11.15;;;0.60;99.90;;;;;;4992644;28;20589;-39
2022/01/10 04:49:59;;;;;;;30.05;13.85;;;0.60;99.90;;;;;;4990782;28;20090;-40
2022/01/10 04:52:24;;;;;;;27.65;13.27;;;0.60;99.90;;;;;;4984546;28;20108;-40
2022/01/10 04:54:52;;;;;;;27.27;13.15;;;0.60;99.90;;;;;;4991048;28;20125;-40
2022/01/10 04:57:19;;;;;;;23.40;11.73;;;0.60;99.90;;;;;;4992854;28;20126;-39
2022/01/10 04:59:46;;;;;;;22.38;13.00;;;0.60;99.90;;;;;;4991675;28;20081;-40
2022/01/10 05:02:13;;;;;;;26.85;13.93;;;0.60;99.90;;;;;;4992810;28;20050;-40
2022/01/10 05:04:40;;;;;;;32.50;14.90;;;0.60;99.90;;;;;;4991259;28;21266;-40
2022/01/10 05:07:07;;;;;;;28.83;13.00;;;0.50;99.90;;;;;;4994821;28;20054;-40
2022/01/10 05:09:35;;;;;;;29.55;15.25;;;0.60;99.90;;;;;;4989120;28;20217;-40
2022/01/10 05:12:03;;;;;;;23.02;11.13;;;0.50;99.90;;;;;;4991070;28;20558;-40
2022/01/10 05:14:32;;;;;;;41.45;16.85;;;0.50;99.90;;;;;;4990671;28;20479;-40
2022/01/10 05:16:59;;;;;;;33.63;15.02;;;0.50;99.90;;;;;;4990742;28;20422;-40
2022/01/10 05:19:26;;;;;;;23.58;12.55;;;0.50;99.90;;;;;;4990214;28;20132;-40
2022/01/10 05:21:53;;;;;;;28.50;13.05;;;0.50;99.90;;;;;;4990025;28;20042;-40
2022/01/10 05:24:20;;;;;;;20.95;12.05;;;0.50;99.90;;;;;;4986216;28;20068;-40
2022/01/10 05:26:47;;;;;;;30.80;14.55;;;0.40;99.90;;;;;;4989379;28;20550;-40
2022/01/10 05:29:15;;;;;;;30.95;13.35;;;0.50;99.90;;;;;;4989896;28;20046;-40
2022/01/10 05:31:42;;;;;;;23.65;14.18;;;0.40;99.90;;;;;;4989427;28;20050;-40
2022/01/10 05:34:09;;;;;;;39.22;16.80;;;0.40;99.90;;;;;;4989548;28;20137;-40
2022/01/10 05:36:36;;;;;;;28.20;14.30;;;0.40;99.90;;;;;;4991092;28;20363;-40
2022/01/10 05:39:03;;;;;;;33.47;17.05;;;0.40;99.90;;;;;;4990565;28;20056;-40
2022/01/10 05:41:30;;;;;;;36.72;16.67;;;0.40;99.90;;;;;;4988693;28;20046;-45
2022/01/10 05:43:57;;;;;;;33.10;16.05;;;0.40;99.90;;;;;;4989820;28;20038;-40
2022/01/10 05:46:26;;;;;;;27.30;14.70;;;0.40;99.90;;;;;;4990333;28;20125;-40
2022/01/10 05:48:59;;;;;;;37.35;17.13;;;0.40;99.90;;;;;;4990021;28;20052;-40
2022/01/10 05:51:28;;;;;;;44.42;20.13;;;0.40;99.90;;;;;;5007031;28;20125;-40
2022/01/10 05:53:55;;;;;;;45.15;19.98;;;0.40;99.90;;;;;;4991074;28;20171;-40
2022/01/10 05:56:22;;;;;;;35.90;17.02;;;0.40;99.90;;;;;;4989286;28;20086;-40
2022/01/10 05:58:49;;;;;;;28.17;14.57;;;0.40;99.90;;;;;;4990006;28;20078;-40
2022/01/10 06:01:16;;;;;;;32.20;15.65;;;0.40;99.90;;;;;;4988264;28;20050;-40
2022/01/10 06:03:44;;;;;;;31.02;15.65;;;0.40;99.90;;;;;;4990050;28;20050;-40
2022/01/10 06:06:11;;;;;;;35.33;17.60;;;0.40;99.90;;;;;;4990492;28;20057;-40
2022/01/10 06:08:38;;;;;;;22.10;12.88;;;0.30;99.90;;;;;;4991110;28;20125;-39
2022/01/10 06:11:05;;;;;;;26.63;13.65;;;0.30;99.90;;;;;;4950220;22;20059;-39
2022/01/10 06:13:57;;;;;;;34.45;16.15;;;0.30;99.90;;;;;;4995966;28;20061;-39
2022/01/10 06:16:24;;;;;;;27.38;13.60;;;0.30;99.90;;;;;;4996061;28;20078;-39
2022/01/10 06:18:52;;;;;;;35.50;16.98;;;0.30;99.90;;;;;;4997997;28;20120;-39
2022/01/10 06:21:19;;;;;;;25.58;12.93;;;0.30;99.90;;;;;;5005039;28;20056;-39
2022/01/10 06:23:46;;;;;;;29.55;14.60;;;0.20;99.90;;;;;;5004288;28;20042;-39
2022/01/10 06:26:13;;;;;;;42.47;22.25;;;0.20;99.90;;;;;;5003542;28;20037;-39
2022/01/10 06:28:40;;;;;;;36.75;18.92;;;0.20;99.90;;;;;;5004252;28;20069;-39
2022/01/10 06:31:07;;;;;;;44.50;21.67;;;0.20;99.90;;;;;;4992257;28;20050;-40
2022/01/10 06:33:34;;;;;;;42.58;22.50;;;0.20;99.90;;;;;;4996953;28;20500;-40
2022/01/10 06:36:03;;;;;;;47.90;23.05;;;0.20;99.90;;;;;;5002971;28;20078;-38
2022/01/10 06:38:30;;;;;;;41.00;22.02;;;0.20;99.90;;;;;;4998132;28;20448;-38
2022/01/10 06:40:57;;;;;;;41.90;22.60;;;0.20;99.90;;;;;;4997860;28;20058;-39
2022/01/10 06:43:24;;;;;;;38.55;20.50;;;0.10;99.90;;;;;;4992863;28;20043;-39
2022/01/10 06:45:51;;;;;;;47.45;23.77;;;0.10;99.90;;;;;;4991949;28;20042;-38
2022/01/10 06:48:18;;;;;;;43.08;23.45;;;0.10;99.90;;;;;;4991101;28;20054;-39
2022/01/10 06:50:47;;;;;;;39.15;20.15;;;0.10;99.90;;;;;;5003172;28;20080;-39
2022/01/10 06:53:15;;;;;;;34.40;18.73;;;0.10;99.90;;;;;;5002179;28;20050;-39
2022/01/10 06:55:42;;;;;;;29.73;16.33;;;0.00;99.90;;;;;;4998742;28;20043;-38
2022/01/10 06:58:09;;;;;;;27.35;16.45;;;0.00;99.90;;;;;;5003383;28;20060;-39
2022/01/10 07:00:36;;;;;;;37.40;19.88;;;0.10;99.90;;;;;;5013379;28;20064;-39
2022/01/10 07:03:03;;;;;;;38.30;20.90;;;0.00;99.90;;;;;;5017761;28;20058;-39
2022/01/10 07:05:30;;;;;;;41.60;19.23;;;0.00;99.90;;;;;;5000506;28;20146;-39
2022/01/10 07:07:57;;;;;;;28.95;15.10;;;0.00;99.90;;;;;;4989472;28;20133;-38
2022/01/10 07:10:25;;;;;;;45.38;19.67;;;0.00;99.90;;;;;;4999846;28;20070;-39
2022/01/10 07:12:53;;;;;;;33.35;17.33;;;0.00;99.90;;;;;;4999438;28;20104;-38
2022/01/10 07:15:21;;;;;;;43.65;22.42;;;0.00;99.90;;;;;;5004273;28;20072;-39
2022/01/10 07:17:50;;;;;;;42.78;21.20;;;-0.10;99.90;;;;;;4997444;28;20042;-39
2022/01/10 07:20:17;;;;;;;39.60;19.85;;;-0.10;99.90;;;;;;4998660;28;20078;-39
2022/01/10 07:22:44;;;;;;;24.33;14.80;;;-0.10;99.90;;;;;;5004077;28;20089;-38
2022/01/10 07:25:11;;;;;;;30.67;16.25;;;-0.10;99.90;;;;;;4978292;28;20047;-39
2022/01/10 07:27:39;;;;;;;31.77;15.88;;;-0.10;99.90;;;;;;4996860;28;20763;-39
2022/01/10 07:30:07;;;;;;;42.05;21.17;;;-0.10;99.90;;;;;;5002946;28;20053;-39
2022/01/10 07:32:34;;;;;;;30.00;16.98;;;-0.10;99.90;;;;;;4988033;28;20137;-39
2022/01/10 07:35:01;;;;;;;41.30;20.33;;;-0.10;99.90;;;;;;4992925;28;20046;-39
2022/01/10 07:37:28;;;;;;;35.72;18.25;;;-0.20;99.90;;;;;;4992685;28;20049;-39
2022/01/10 07:39:55;;;;;;;42.92;21.80;;;-0.20;99.90;;;;;;4996537;28;20057;-39
2022/01/10 07:42:22;;;;;;;40.47;20.60;;;-0.20;99.90;;;;;;4997902;28;20078;-39
2022/01/10 07:44:50;;;;;;;33.60;18.23;;;-0.20;99.90;;;;;;4992287;28;20081;-39
2022/01/10 07:47:17;;;;;;;37.15;17.80;;;-0.10;99.90;;;;;;4991521;28;20058;-39
2022/01/10 07:49:44;;;;;;;37.83;20.02;;;-0.20;99.90;;;;;;4990454;28;20113;-38
2022/01/10 07:52:11;;;;;;;43.72;22.65;;;-0.20;99.90;;;;;;4989414;28;20050;-39
2022/01/10 07:54:38;;;;;;;47.25;19.23;;;-0.20;99.90;;;;;;4989683;28;20398;-39
2022/01/10 07:57:06;;;;;;;31.83;16.65;;;-0.20;99.90;;;;;;4991077;28;20050;-39
2022/01/10 07:59:33;;;;;;;30.98;18.52;;;-0.20;99.90;;;;;;4989512;28;20050;-39
2022/01/10 08:02:01;;;;;;;29.20;18.73;;;-0.20;99.90;;;;;;4992008;28;20052;-39
2022/01/10 08:04:28;;;;;;;31.23;17.25;;;-0.20;99.90;;;;;;4997955;28;20127;-39
2022/01/10 08:06:55;;;;;;;30.40;16.25;;;-0.20;99.90;;;;;;5003986;28;20057;-39
2022/01/10 08:09:22;;;;;;;33.25;19.73;;;-0.20;99.90;;;;;;5001107;28;20117;-39
2022/01/10 08:11:49;;;;;;;41.95;19.88;;;-0.20;99.90;;;;;;5003298;28;20052;-40
2022/01/10 08:14:16;;;;;;;42.75;20.88;;;-0.20;99.90;;;;;;5000181;28;20054;-39
2022/01/10 08:16:43;;;;;;;28.85;16.35;;;-0.20;99.90;;;;;;5019330;28;20053;-39
2022/01/10 08:19:11;;;;;;;30.45;16.75;;;-0.20;99.90;;;;;;4991485;28;20495;-39
2022/01/10 08:21:38;;;;;;;39.65;20.10;;;-0.20;99.90;;;;;;4998704;28;20048;-39
2022/01/10 08:24:06;;;;;;;29.52;16.52;;;-0.20;99.90;;;;;;4993646;28;20169;-39
2022/01/10 08:26:33;;;;;;;33.85;18.45;;;-0.20;99.90;;;;;;4998812;28;20517;-39
2022/01/10 08:29:00;;;;;;;33.20;18.45;;;-0.20;99.90;;;;;;4989444;28;20129;-39
2022/01/10 08:31:27;;;;;;;30.33;18.33;;;-0.20;99.90;;;;;;4996162;28;20058;-39
2022/01/10 08:33:54;;;;;;;35.78;18.17;;;-0.20;99.90;;;;;;4998502;28;20045;-39
2022/01/10 08:36:22;;;;;;;34.20;17.90;;;-0.20;99.90;;;;;;4997013;28;20495;-39
2022/01/10 08:38:49;;;;;;;43.13;19.88;;;-0.20;99.90;;;;;;4994993;28;20061;-46
2022/01/10 08:41:16;;;;;;;42.90;27.67;;;-0.20;99.90;;;;;;4993730;28;20054;-39
2022/01/10 08:43:43;;;;;;;30.17;17.50;;;-0.10;99.90;;;;;;4987111;28;20129;-39
2022/01/10 08:46:10;;;;;;;26.45;17.17;;;-0.10;99.90;;;;;;4993450;28;20165;-39
2022/01/10 08:48:37;;;;;;;29.73;18.95;;;-0.10;99.90;;;;;;4991940;28;20081;-40
2022/01/10 08:51:04;;;;;;;40.20;21.15;;;-0.10;99.90;;;;;;4998701;28;20136;-40
2022/01/10 08:53:32;;;;;;;33.05;17.98;;;-0.10;99.90;;;;;;5001346;28;20081;-39
2022/01/10 08:55:59;;;;;;;32.42;19.25;;;-0.10;99.90;;;;;;4993083;28;20384;-39
2022/01/10 08:58:32;;;;;;;41.70;23.73;;;0.00;99.90;;;;;;4997614;28;20133;-40
2022/01/10 09:00:59;;;;;;;44.47;23.98;;;-0.10;99.90;;;;;;4996092;28;20042;-39
2022/01/10 09:03:26;;;;;;;30.15;18.00;;;0.00;99.90;;;;;;4989862;28;20125;-40
2022/01/10 09:05:55;;;;;;;48.53;25.05;;;0.00;99.90;;;;;;4994238;28;20046;-40
2022/01/10 09:08:22;;;;;;;50.60;26.10;;;0.10;99.90;;;;;;4990923;28;20117;-40
2022/01/10 09:10:50;;;;;;;41.08;23.10;;;0.20;99.90;;;;;;5006524;28;20092;-40
2022/01/10 09:13:17;;;;;;;54.67;27.90;;;0.20;99.90;;;;;;4989400;28;20096;-40
2022/01/10 09:15:44;;;;;;;40.38;22.02;;;0.30;99.90;;;;;;4988879;28;20078;-40
2022/01/10 09:18:11;;;;;;;49.85;26.25;;;0.30;99.90;;;;;;4977561;28;20046;-39
2022/01/10 09:20:38;;;;;;;51.92;27.40;;;0.40;99.90;;;;;;4990578;28;20129;-39
2022/01/10 09:23:05;;;;;;;60.38;29.45;;;0.40;99.90;;;;;;4989685;28;20085;-40
2022/01/10 09:25:32;;;;;;;51.38;27.67;;;0.50;99.90;;;;;;4991143;28;20499;-40
2022/01/10 09:28:00;;;;;;;50.15;29.05;;;0.60;99.90;;;;;;5002977;28;20134;-40
2022/01/10 09:30:27;;;;;;;53.70;26.67;;;0.60;99.90;;;;;;4993456;28;20455;-40
2022/01/10 09:32:54;;;;;;;56.05;29.70;;;0.70;99.90;;;;;;4994071;28;20084;-39
2022/01/10 09:35:21;;;;;;;63.45;32.38;;;0.70;99.90;;;;;;5011614;28;20467;-40
2022/01/10 09:37:49;;;;;;;56.65;29.67;;;0.80;99.90;;;;;;4993106;28;20057;-39
2022/01/10 09:40:16;;;;;;;86.53;46.53;;;0.90;99.90;;;;;;4984799;28;20120;-40
2022/01/10 09:42:43;;;;;;;58.78;33.13;;;0.90;99.90;;;;;;4991411;28;20113;-39
2022/01/10 09:45:12;;;;;;;64.63;36.40;;;1.00;99.90;;;;;;4991551;28;20566;-40
2022/01/10 09:47:39;;;;;;;65.35;34.08;;;1.10;99.90;;;;;;4995026;28;20097;-40
2022/01/10 09:50:07;;;;;;;68.32;34.88;;;1.10;99.90;;;;;;4991821;28;20136;-39
2022/01/10 09:52:34;;;;;;;54.22;33.17;;;1.20;99.90;;;;;;4990785;28;20085;-40
2022/01/10 09:55:01;;;;;;;53.40;29.80;;;1.30;99.90;;;;;;4995849;28;20046;-40
2022/01/10 09:57:28;;;;;;;61.70;29.08;;;1.40;99.90;;;;;;4995680;28;20089;-40
2022/01/10 09:59:55;;;;;;;63.78;32.70;;;1.40;99.90;;;;;;5000177;28;20134;-39
2022/01/10 10:02:30;;;;;;;52.13;31.00;;;1.50;99.90;;;;;;4991461;28;20132;-40
2022/01/10 10:04:57;;;;;;;53.10;30.08;;;1.60;99.90;;;;;;5010169;28;20050;-39
2022/01/10 10:07:24;;;;;;;60.95;30.58;;;1.70;99.90;;;;;;4990266;28;20133;-40
2022/01/10 10:09:51;;;;;;;50.03;28.63;;;1.80;99.90;;;;;;5006152;28;20060;-40
2022/01/10 10:12:18;;;;;;;57.20;33.75;;;1.80;99.90;;;;;;4995899;28;20104;-40
2022/01/10 10:14:46;;;;;;;59.78;31.10;;;1.90;99.90;;;;;;4991772;28;20046;-40
2022/01/10 10:17:17;;;;;;;57.35;29.15;;;2.00;99.90;;;;;;4986458;28;20050;-40
2022/01/10 10:19:46;;;;;;;54.40;30.95;;;2.10;99.90;;;;;;4990276;28;20090;-40
2022/01/10 10:22:15;;;;;;;59.65;29.88;;;2.20;99.90;;;;;;4993428;28;20046;-39
2022/01/10 10:24:42;;;;;;;54.38;29.85;;;2.20;99.90;;;;;;5009211;28;20064;-40
2022/01/10 10:27:09;;;;;;;57.90;31.58;;;2.30;99.90;;;;;;4993588;28;20050;-40
2022/01/10 10:29:38;;;;;;;54.15;30.05;;;2.30;99.90;;;;;;4989572;28;20129;-40
2022/01/10 10:32:06;;;;;;;51.08;29.10;;;2.40;99.90;;;;;;4994350;28;20043;-40
2022/01/10 10:34:33;;;;;;;48.13;27.95;;;2.50;99.90;;;;;;4989797;28;20058;-39
2022/01/10 10:37:03;;;;;;;54.28;29.65;;;2.60;99.90;;;;;;4990454;28;20061;-41
2022/01/10 10:39:31;;;;;;;46.42;29.55;;;2.60;99.90;;;;;;4992030;28;20577;-40
2022/01/10 10:42:00;;;;;;;50.55;30.98;;;2.70;99.90;;;;;;4989825;28;20557;-40
2022/01/10 10:44:28;;;;;;;53.35;30.27;;;2.70;99.90;;;;;;4990765;28;20086;-40
2022/01/10 10:46:55;;;;;;;47.15;26.85;;;2.80;99.90;;;;;;4985289;28;20053;-41
2022/01/10 10:49:25;;;;;;;56.97;28.92;;;2.90;99.90;;;;;;4990338;28;20049;-41
2022/01/10 10:51:52;;;;;;;54.40;29.85;;;2.90;99.90;;;;;;4990341;28;20050;-40
2022/01/10 10:54:22;;;;;;;49.80;30.48;;;2.90;99.90;;;;;;4989956;28;20077;-38
2022/01/10 10:56:49;;;;;;;60.13;30.20;;;3.00;99.90;;;;;;4989475;28;20054;-39
2022/01/10 10:59:16;;;;;;;53.33;28.98;;;3.10;99.90;;;;;;5000905;28;20136;-39
2022/01/10 11:01:43;;;;;;;57.83;31.98;;;3.10;99.90;;;;;;4991913;28;20085;-41
2022/01/10 11:04:11;;;;;;;49.17;30.25;;;3.10;99.90;;;;;;4996198;28;20054;-40
2022/01/10 11:06:39;;;;;;;60.92;30.77;;;3.20;99.90;;;;;;4990975;28;20050;-40
2022/01/10 11:09:09;;;;;;;57.28;32.55;;;3.30;99.90;;;;;;4988477;28;20058;-40
2022/01/10 11:11:37;;;;;;;62.20;30.60;;;3.30;99.90;;;;;;4989380;28;20054;-40
2022/01/10 11:14:04;;;;;;;55.03;30.35;;;3.40;99.90;;;;;;4994238;28;20056;-39
2022/01/10 11:16:31;;;;;;;52.78;30.17;;;3.40;99.90;;;;;;4993646;28;20060;-40
2022/01/10 11:18:59;;;;;;;52.97;30.10;;;3.50;99.90;;;;;;4996072;28;20054;-40
2022/01/10 11:21:26;;;;;;;62.00;31.73;;;3.60;99.90;;;;;;5007089;28;20080;-40
2022/01/10 11:23:53;;;;;;;60.53;31.45;;;3.60;99.90;;;;;;5007242;28;20491;-40
2022/01/10 11:26:20;;;;;;;55.55;31.88;;;3.70;99.90;;;;;;4992440;28;20137;-41
2022/01/10 11:28:49;;;;;;;51.20;29.50;;;3.70;99.90;;;;;;4992721;28;20088;-40
2022/01/10 11:31:22;;;;;;;50.13;29.55;;;3.80;99.90;;;;;;4983721;28;20058;-41
2022/01/10 11:33:49;;;;;;;49.13;29.67;;;3.90;99.90;;;;;;4989308;28;20475;-40
2022/01/10 11:36:18;;;;;;;55.53;29.20;;;3.90;99.90;;;;;;4991286;28;20113;-41
2022/01/10 11:38:52;;;;;;;53.22;29.45;;;4.00;99.90;;;;;;5005646;28;20060;-41
2022/01/10 11:41:19;;;;;;;53.65;30.88;;;4.10;99.90;;;;;;4992625;28;20509;-41
2022/01/10 11:43:50;;;;;;;61.35;29.98;;;4.10;99.90;;;;;;4987010;28;20054;-41
2022/01/10 11:46:23;;;;;;;52.58;29.20;;;4.10;99.90;;;;;;4989663;28;20054;-41
2022/01/10 11:48:57;;;;;;;54.92;28.15;;;4.30;99.90;;;;;;4990019;28;20535;-41
2022/01/10 11:51:25;;;;;;;51.72;27.33;;;4.30;99.90;;;;;;4993059;28;20050;-40
2022/01/10 11:53:54;;;;;;;50.67;28.55;;;4.30;99.90;;;;;;4991630;28;20506;-40
2022/01/10 11:56:26;;;;;;;52.53;27.88;;;4.40;99.90;;;;;;4991098;28;20133;-41
2022/01/10 11:59:17;;;;;;;62.25;28.58;;;4.40;99.90;;;;;;4989942;28;20056;-40
2022/01/10 12:01:47;;;;;;;56.72;28.15;;;4.50;99.90;;;;;;4989921;28;20049;-40
2022/01/10 12:04:14;;;;;;;55.05;26.52;;;4.50;99.90;;;;;;4989312;28;20058;-40
2022/01/10 12:06:41;;;;;;;58.90;27.80;;;4.60;99.90;;;;;;4989025;28;20503;-40
2022/01/10 12:09:08;;;;;;;48.17;27.52;;;4.50;99.90;;;;;;4992750;28;20050;-40
2022/01/10 12:11:37;;;;;;;50.42;27.25;;;4.60;99.90;;;;;;4990838;28;20050;-40
2022/01/10 12:14:06;;;;;;;55.83;28.58;;;4.70;99.90;;;;;;4991191;28;20060;-40
2022/01/10 12:16:35;;;;;;;52.08;27.52;;;4.70;99.90;;;;;;4991941;28;20084;-40
2022/01/10 12:19:03;;;;;;;49.15;26.30;;;4.80;99.90;;;;;;4992066;28;20491;-39
2022/01/10 12:21:30;;;;;;;49.00;25.15;;;4.80;99.90;;;;;;4990929;28;20051;-39
2022/01/10 12:23:57;;;;;;;44.80;25.02;;;4.90;99.90;;;;;;4990036;28;20046;-39
2022/01/10 12:26:25;;;;;;;57.67;30.05;;;4.90;99.90;;;;;;4991029;28;20089;-39
2022/01/10 12:28:53;;;;;;;56.75;26.67;;;4.90;99.90;;;;;;4990837;28;20043;-40
2022/01/10 12:31:21;;;;;;;51.40;28.52;;;4.90;99.90;;;;;;4991954;28;20458;-37
2022/01/10 12:33:49;;;;;;;56.65;31.58;;;5.00;99.90;;;;;;4991316;28;20487;-40
2022/01/10 12:36:16;;;;;;;54.53;23.77;;;5.00;99.90;;;;;;4991048;28;20593;-40
2022/01/10 12:38:43;;;;;;;49.22;26.48;;;5.10;99.90;;;;;;4986188;28;20140;-38
2022/01/10 12:41:10;;;;;;;45.92;24.02;;;5.10;99.90;;;;;;4992384;28;20133;-40
2022/01/10 12:43:37;;;;;;;53.78;26.70;;;5.20;99.90;;;;;;4989583;28;20058;-40
2022/01/10 12:46:04;;;;;;;47.60;26.77;;;5.20;99.90;;;;;;4990107;28;20085;-40
2022/01/10 12:48:31;;;;;;;45.30;25.30;;;5.30;99.90;;;;;;4989951;28;20440;-40
2022/01/10 12:51:00;;;;;;;53.08;26.15;;;5.30;99.90;;;;;;4990872;28;20814;-40